Time;durP1;ratioP1;P1;durP2;ratioP2;P2;SDS_P1;SDS_P2;PMS_P1;PMS_P2;Temp;Humidity;BMP_temperature;BMP_pressure;BME280_temperature;BME280_humidity;BME280_pressure;Samples;Min_cycle;Max_cycle;Signal;HPM_P1;HPM_P2
2022/01/05 00:00:12;;;;;;;;;;;;;;;10.46;46.12;100182.03;5042647;28;19917;-83
2022/01/05 00:02:39;;;;;;;;;;;;;;;11.14;44.51;100180.72;5043379;28;20035;-83
2022/01/05 00:05:05;;;;;;;;;;;;;;;10.92;44.62;100170.34;5043611;28;19923;-83
2022/01/05 00:07:30;;;;;;;;;;;;;;;10.68;44.52;100178.09;5044096;28;19917;-83
2022/01/05 00:09:56;;;;;;;;;;;;;;;10.25;46.08;100179.59;5044161;28;19905;-83
2022/01/05 00:12:21;;;;;;;;;;;;;;;10.23;45.77;100184.19;5059856;28;19917;-82
2022/01/05 00:14:46;;;;;;;;;;;;;;;9.59;46.44;100177.84;5041112;28;20275;-81
2022/01/05 00:17:11;;;;;;;;;;;;;;;10.33;44.45;100175.56;5060316;28;19962;-82
2022/01/05 00:19:37;;;;;;;;;;;;;;;10.03;44.52;100182.63;5042742;28;19917;-82
2022/01/05 00:22:02;;;;;;;;;;;;;;;9.40;47.83;100180.66;5061219;28;20374;-82
2022/01/05 00:24:28;;;;;;;;;;;;;;;9.23;48.38;100179.72;5043220;28;19939;-82
2022/01/05 00:26:53;;;;;;;;;;;;;;;10.39;45.67;100178.81;5042416;28;19924;-82
2022/01/05 00:29:18;;;;;;;;;;;;;;;10.06;46.11;100176.19;5059965;28;19943;-82
2022/01/05 00:31:43;;;;;;;;;;;;;;;9.42;46.89;100173.38;5042090;28;19964;-82
2022/01/05 00:34:09;;;;;;;;;;;;;;;9.70;46.31;100185.38;5043164;28;19921;-83
2022/01/05 00:36:34;;;;;;;;;;;;;;;10.31;45.00;100182.88;5042757;28;19916;-82
2022/01/05 00:38:59;;;;;;;;;;;;;;;9.80;45.84;100181.22;5042854;28;19925;-82
2022/01/05 00:41:24;;;;;;;;;;;;;;;9.85;46.07;100181.81;5041991;28;19921;-82
2022/01/05 00:43:50;;;;;;;;;;;;;;;9.24;46.69;100180.63;5042375;28;19956;-82
2022/01/05 00:46:15;;;;;;;;;;;;;;;10.23;45.03;100181.47;5042539;28;19924;-82
2022/01/05 00:48:40;;;;;;;;;;;;;;;10.52;43.87;100178.97;5043023;28;19917;-82
2022/01/05 00:51:06;;;;;;;;;;;;;;;9.97;44.65;100174.00;5042667;28;19923;-82
2022/01/05 00:53:32;;;;;;;;;;;;;;;10.17;43.99;100181.84;5060731;28;19917;-80
2022/01/05 00:55:57;;;;;;;;;;;;;;;9.94;44.04;100192.09;5042471;28;20369;-82
2022/01/05 00:58:23;;;;;;;;;;;;;;;9.56;44.62;100186.97;5060870;28;19940;-81
2022/01/05 01:00:48;;;;;;;;;;;;;;;9.62;44.26;100187.59;5044116;28;19936;-82
2022/01/05 01:03:13;;;;;;;;;;;;;;;8.93;45.17;100190.28;5043330;28;20432;-82
2022/01/05 01:05:39;;;;;;;;;;;;;;;9.85;43.09;100189.91;5061146;28;19921;-82
2022/01/05 01:08:04;;;;;;;;;;;;;;;9.60;44.12;100192.22;5043456;28;19917;-82
2022/01/05 01:10:29;;;;;;;;;;;;;;;9.89;42.91;100196.91;5059730;28;19924;-82
2022/01/05 01:12:55;;;;;;;;;;;;;;;10.01;42.23;100191.75;5062129;28;19932;-82
2022/01/05 01:15:20;;;;;;;;;;;;;;;9.86;43.14;100186.25;5044797;28;19946;-83
2022/01/05 01:17:45;;;;;;;;;;;;;;;9.81;43.03;100187.47;5047386;28;19964;-83
2022/01/05 01:20:10;;;;;;;;;;;;;;;10.16;42.51;100199.03;5047145;28;19916;-82
2022/01/05 01:22:36;;;;;;;;;;;;;;;9.79;43.07;100200.19;5047590;28;19962;-83
2022/01/05 01:25:02;;;;;;;;;;;;;;;9.77;42.57;100197.59;5047783;28;19917;-82
2022/01/05 01:27:27;;;;;;;;;;;;;;;9.74;42.83;100198.63;5047223;28;20011;-81
2022/01/05 01:29:52;;;;;;;;;;;;;;;9.80;43.21;100201.91;5048701;28;19917;-83
2022/01/05 01:32:18;;;;;;;;;;;;;;;9.74;43.55;100197.75;5065918;28;19936;-82
2022/01/05 01:34:43;;;;;;;;;;;;;;;9.61;43.95;100193.97;5047062;28;20042;-82
2022/01/05 01:37:08;;;;;;;;;;;;;;;9.88;42.87;100200.56;5046700;28;19921;-82
2022/01/05 01:39:34;;;;;;;;;;;;;;;10.41;42.49;100200.34;5064504;28;19916;-81
2022/01/05 01:41:59;;;;;;;;;;;;;;;10.08;43.44;100195.88;5065630;28;19922;-82
2022/01/05 01:44:24;;;;;;;;;;;;;;;10.16;42.86;100195.44;5048175;28;19990;-83
2022/01/05 01:46:49;;;;;;;;;;;;;;;9.08;44.79;100199.44;5047903;28;19913;-82
2022/01/05 01:49:15;;;;;;;;;;;;;;;9.18;45.39;100199.84;5044943;28;19955;-82
2022/01/05 01:51:40;;;;;;;;;;;;;;;9.12;45.67;100198.31;5043857;28;19917;-83
2022/01/05 01:54:06;;;;;;;;;;;;;;;9.93;44.18;100200.28;5044195;28;19917;-82
2022/01/05 01:56:34;;;;;;;;;;;;;;;9.77;44.91;100197.59;5043088;28;20436;-82
2022/01/05 01:59:00;;;;;;;;;;;;;;;9.98;44.50;100200.03;5061691;28;19913;-82
2022/01/05 02:01:26;;;;;;;;;;;;;;;9.90;45.04;100212.16;5043926;28;19921;-82
2022/01/05 02:03:51;;;;;;;;;;;;;;;9.35;45.85;100210.59;5043757;28;19921;-82
2022/01/05 02:06:16;;;;;;;;;;;;;;;9.68;45.41;100214.28;5043862;28;19919;-83
2022/01/05 02:08:43;;;;;;;;;;;;;;;9.21;46.28;100227.53;5042714;28;19924;-83
2022/01/05 02:11:09;;;;;;;;;;;;;;;9.71;45.57;100220.38;5043714;28;20393;-83
2022/01/05 02:13:35;;;;;;;;;;;;;;;9.04;46.58;100220.31;5043624;28;20337;-82
2022/01/05 02:16:00;;;;;;;;;;;;;;;10.02;44.95;100215.13;5060816;28;20370;-83
2022/01/05 02:21:05;;;;;;;;;;;;;;;9.54;45.63;100210.50;5060788;28;19952;-83
2022/01/05 02:23:30;;;;;;;;;;;;;;;9.93;45.29;100212.00;5042349;28;19917;-83
2022/01/05 02:25:56;;;;;;;;;;;;;;;9.34;47.07;100210.69;5041719;28;19970;-83
2022/01/05 02:28:21;;;;;;;;;;;;;;;10.14;45.92;100211.75;5041793;28;19928;-82
2022/01/05 02:30:49;;;;;;;;;;;;;;;10.54;45.04;100216.78;5042271;28;19928;-82
2022/01/05 02:33:15;;;;;;;;;;;;;;;10.06;45.99;100214.88;5060899;28;20395;-81
2022/01/05 02:35:40;;;;;;;;;;;;;;;10.20;46.15;100224.03;5043577;28;19917;-81
2022/01/05 02:38:05;;;;;;;;;;;;;;;9.91;46.75;100223.84;5043544;28;20393;-81
2022/01/05 02:40:30;;;;;;;;;;;;;;;9.99;47.36;100229.69;5042621;28;19924;-82
2022/01/05 02:42:56;;;;;;;;;;;;;;;9.73;47.43;100217.59;5062003;28;20314;-82
2022/01/05 02:45:22;;;;;;;;;;;;;;;9.40;48.32;100226.53;5043588;28;19966;-82
2022/01/05 02:47:48;;;;;;;;;;;;;;;10.05;47.08;100217.66;5043795;28;20400;-81
2022/01/05 02:50:14;;;;;;;;;;;;;;;9.91;46.68;100222.00;5044915;28;19924;-83
2022/01/05 02:52:39;;;;;;;;;;;;;;;9.72;47.43;100216.75;5045277;28;19925;-82
2022/01/05 02:55:05;;;;;;;;;;;;;;;9.79;46.70;100228.06;5045463;28;19927;-82
2022/01/05 02:57:31;;;;;;;;;;;;;;;8.99;48.53;100227.75;5045552;28;19963;-81
2022/01/05 02:59:56;;;;;;;;;;;;;;;9.61;47.32;100240.75;5045093;28;19980;-81
2022/01/05 03:02:22;;;;;;;;;;;;;;;9.53;48.04;100232.19;5045896;28;19929;-82
2022/01/05 03:04:47;;;;;;;;;;;;;;;9.38;47.84;100228.47;5045717;28;19917;-82
2022/01/05 03:07:14;;;;;;;;;;;;;;;9.27;48.23;100237.13;5044536;28;19956;-81
2022/01/05 03:09:39;;;;;;;;;;;;;;;9.79;47.87;100228.06;5044458;28;19927;-82
2022/01/05 03:12:05;;;;;;;;;;;;;;;9.38;48.63;100241.97;5062847;28;19917;-81
2022/01/05 03:14:30;;;;;;;;;;;;;;;9.28;48.95;100243.41;5044448;28;19916;-81
2022/01/05 03:16:55;;;;;;;;;;;;;;;9.51;48.14;100244.88;5044469;28;20011;-81
2022/01/05 03:19:20;;;;;;;;;;;;;;;10.29;46.76;100253.25;5047579;28;19917;-81
2022/01/05 03:21:46;;;;;;;;;;;;;;;9.88;48.07;100242.91;5048547;28;19920;-81
2022/01/05 03:24:11;;;;;;;;;;;;;;;9.79;47.78;100255.09;5051593;28;19927;-81
2022/01/05 03:26:36;;;;;;;;;;;;;;;9.78;48.04;100253.31;5069790;28;20390;-81
2022/01/05 03:29:02;;;;;;;;;;;;;;;9.65;48.70;100252.28;5052516;28;20457;-81
2022/01/05 03:31:27;;;;;;;;;;;;;;;9.51;49.40;100263.78;5052344;28;20361;-81
2022/01/05 03:33:52;;;;;;;;;;;;;;;9.73;48.54;100250.03;5051711;28;19917;-81
2022/01/05 03:36:18;;;;;;;;;;;;;;;9.88;48.71;100249.19;5069460;28;20011;-82
2022/01/05 03:38:43;;;;;;;;;;;;;;;9.88;48.84;100259.13;5050644;28;19912;-81
2022/01/05 03:41:08;;;;;;;;;;;;;;;9.91;48.94;100257.13;5068345;28;20145;-81
2022/01/05 03:43:34;;;;;;;;;;;;;;;10.46;47.61;100265.84;5051093;28;19916;-82
2022/01/05 03:45:59;;;;;;;;;;;;;;;10.97;46.44;100260.25;5068458;28;20354;-80
2022/01/05 03:48:24;;;;;;;;;;;;;;;9.60;48.73;100262.44;5050089;28;19917;-81
2022/01/05 03:50:50;;;;;;;;;;;;;;;9.35;49.46;100266.44;5049226;28;19924;-81
2022/01/05 03:53:15;;;;;;;;;;;;;;;10.73;46.76;100271.53;5067325;28;19917;-81
2022/01/05 03:55:41;;;;;;;;;;;;;;;10.18;48.28;100267.38;5049630;28;20275;-80
2022/01/05 03:58:07;;;;;;;;;;;;;;;9.39;49.59;100268.00;5049773;28;19916;-82
2022/01/05 04:00:34;;;;;;;;;;;;;;;9.67;49.00;100267.41;5067043;28;19925;-82
2022/01/05 04:02:59;;;;;;;;;;;;;;;9.56;49.27;100268.00;5049548;28;19928;-80
2022/01/05 04:05:25;;;;;;;;;;;;;;;9.70;48.55;100266.38;5048686;28;19916;-81
2022/01/05 04:07:52;;;;;;;;;;;;;;;10.17;47.81;100260.22;5048876;28;19916;-81
2022/01/05 04:10:18;;;;;;;;;;;;;;;10.09;47.90;100263.34;5049373;28;19935;-81
2022/01/05 04:12:43;;;;;;;;;;;;;;;9.60;48.88;100267.81;5049020;28;19917;-81
2022/01/05 04:15:09;;;;;;;;;;;;;;;9.37;48.97;100275.31;5049349;28;19944;-81
2022/01/05 04:17:34;;;;;;;;;;;;;;;9.30;50.10;100281.97;5049545;28;20011;-81
2022/01/05 04:20:00;;;;;;;;;;;;;;;9.83;48.55;100283.69;5048953;28;19916;-81
2022/01/05 04:22:25;;;;;;;;;;;;;;;10.57;47.51;100285.06;5048206;28;19924;-82
2022/01/05 04:24:50;;;;;;;;;;;;;;;9.62;49.08;100284.81;5067296;28;19963;-81
2022/01/05 04:27:16;;;;;;;;;;;;;;;10.20;47.63;100270.84;5049609;28;19917;-82
2022/01/05 04:29:42;;;;;;;;;;;;;;;10.04;47.49;100276.25;5050142;28;19939;-81
2022/01/05 04:32:07;;;;;;;;;;;;;;;10.16;47.20;100268.41;5049595;28;19924;-80
2022/01/05 04:34:33;;;;;;;;;;;;;;;9.89;48.19;100269.84;5048943;28;19928;-81
2022/01/05 04:36:58;;;;;;;;;;;;;;;9.52;49.09;100274.50;5066127;28;20240;-82
2022/01/05 04:39:23;;;;;;;;;;;;;;;9.31;49.71;100287.28;5049146;28;19917;-82
2022/01/05 04:41:48;;;;;;;;;;;;;;;9.88;48.61;100270.78;5049034;28;19929;-83
2022/01/05 04:44:14;;;;;;;;;;;;;;;10.09;48.22;100271.47;5067139;28;19917;-82
2022/01/05 04:46:39;;;;;;;;;;;;;;;10.09;48.28;100276.88;5049735;28;20393;-82
2022/01/05 04:49:04;;;;;;;;;;;;;;;9.90;48.59;100279.72;5068602;28;19917;-82
2022/01/05 04:51:30;;;;;;;;;;;;;;;10.13;48.44;100276.69;5049646;28;19923;-82
2022/01/05 04:53:55;;;;;;;;;;;;;;;10.16;48.28;100281.94;5068435;28;20333;-82
2022/01/05 04:56:20;;;;;;;;;;;;;;;9.34;50.63;100287.13;5050640;28;19921;-82
2022/01/05 04:58:46;;;;;;;;;;;;;;;9.89;49.78;100288.75;5050858;28;19916;-82
2022/01/05 05:01:11;;;;;;;;;;;;;;;9.32;50.39;100293.56;5050593;28;19944;-82
2022/01/05 05:03:37;;;;;;;;;;;;;;;9.62;49.88;100291.09;5050300;28;20030;-82
2022/01/05 05:06:03;;;;;;;;;;;;;;;9.57;49.39;100303.97;5050275;28;19966;-83
2022/01/05 05:08:28;;;;;;;;;;;;;;;9.33;50.21;100301.59;5050295;28;20476;-82
2022/01/05 05:10:53;;;;;;;;;;;;;;;9.58;49.88;100301.19;5068125;28;19916;-83
2022/01/05 05:13:18;;;;;;;;;;;;;;;10.02;48.65;100302.47;5050657;28;19921;-81
2022/01/05 05:15:44;;;;;;;;;;;;;;;9.45;49.77;100300.09;5068388;28;19917;-81
2022/01/05 05:18:09;;;;;;;;;;;;;;;9.58;49.10;100297.63;5050001;28;19972;-81
2022/01/05 05:20:34;;;;;;;;;;;;;;;9.37;49.50;100313.09;5050519;28;19939;-80
2022/01/05 05:23:00;;;;;;;;;;;;;;;9.52;49.33;100312.31;5049386;28;19916;-81
2022/01/05 05:25:26;;;;;;;;;;;;;;;9.73;49.10;100302.19;5050570;28;19921;-80
2022/01/05 05:27:51;;;;;;;;;;;;;;;9.07;50.41;100305.59;5051378;28;19917;-81
2022/01/05 05:30:16;;;;;;;;;;;;;;;8.79;52.02;100306.97;5051712;28;19916;-81
2022/01/05 05:32:42;;;;;;;;;;;;;;;9.19;49.82;100287.91;5051655;28;19924;-81
2022/01/05 05:35:07;;;;;;;;;;;;;;;9.35;50.00;100282.63;5047579;28;20433;-81
2022/01/05 05:37:33;;;;;;;;;;;;;;;9.50;50.25;100300.72;5056734;28;20031;-81
2022/01/05 05:39:58;;;;;;;;;;;;;;;9.43;50.47;100296.59;5039725;28;20054;-81
2022/01/05 05:42:24;;;;;;;;;;;;;;;9.20;50.97;100301.34;5057606;28;20031;-81
2022/01/05 05:44:49;;;;;;;;;;;;;;;9.27;50.72;100296.50;5039249;28;19916;-81
2022/01/05 05:47:14;;;;;;;;;;;;;;;9.32;50.88;100298.97;5039727;28;19963;-81
2022/01/05 05:49:39;;;;;;;;;;;;;;;9.73;50.04;100298.63;5040493;28;19917;-80
2022/01/05 05:52:05;;;;;;;;;;;;;;;9.45;50.23;100301.91;5040491;28;19921;-81
2022/01/05 05:54:30;;;;;;;;;;;;;;;9.26;51.43;100310.94;5038536;28;19921;-80
2022/01/05 05:56:55;;;;;;;;;;;;;;;9.20;51.11;100306.72;5038833;28;19930;-79
2022/01/05 05:59:21;;;;;;;;;;;;;;;9.72;50.32;100302.28;5039463;28;20019;-81
2022/01/05 06:01:46;;;;;;;;;;;;;;;9.93;49.95;100302.97;5039223;28;20283;-81
2022/01/05 06:04:11;;;;;;;;;;;;;;;10.16;49.97;100309.84;5039410;28;19917;-81
2022/01/05 06:06:37;;;;;;;;;;;;;;;9.95;50.01;100309.19;5039656;28;20339;-81
2022/01/05 06:09:02;;;;;;;;;;;;;;;9.86;50.35;100315.09;5039050;28;19924;-80
2022/01/05 06:11:27;;;;;;;;;;;;;;;9.98;49.80;100308.13;5040055;28;19917;-81
2022/01/05 06:13:54;;;;;;;;;;;;;;;10.19;49.05;100309.69;5039808;28;19917;-82
2022/01/05 06:16:19;;;;;;;;;;;;;;;10.08;49.75;100309.38;5039851;28;19917;-80
2022/01/05 06:18:44;;;;;;;;;;;;;;;10.24;50.20;100310.28;5040281;28;19970;-80
2022/01/05 06:21:10;;;;;;;;;;;;;;;10.15;50.73;100315.34;5039617;28;19917;-81
2022/01/05 06:23:35;;;;;;;;;;;;;;;10.32;50.07;100328.78;5057036;28;19917;-80
2022/01/05 06:26:00;;;;;;;;;;;;;;;9.64;52.37;100332.41;5038569;28;19917;-81
2022/01/05 06:28:25;;;;;;;;;;;;;;;10.08;51.43;100325.59;5056745;28;19917;-81
2022/01/05 06:30:51;;;;;;;;;;;;;;;10.42;50.79;100337.31;5038710;28;20282;-81
2022/01/05 06:33:16;;;;;;;;;;;;;;;10.06;51.29;100327.53;5038282;28;19917;-81
2022/01/05 06:35:41;;;;;;;;;;;;;;;10.31;51.06;100342.41;5036723;28;19916;-81
2022/01/05 06:38:06;;;;;;;;;;;;;;;9.84;52.32;100334.03;5054504;28;20001;-81
2022/01/05 06:40:31;;;;;;;;;;;;;;;10.49;51.06;100340.53;5036519;28;20003;-82
2022/01/05 06:42:59;;;;;;;;;;;;;;;9.58;52.72;100338.97;5055456;28;20366;-81
2022/01/05 06:45:24;;;;;;;;;;;;;;;10.21;51.87;100351.00;5037854;28;19916;-80
2022/01/05 06:47:49;;;;;;;;;;;;;;;10.00;52.28;100334.13;5037311;28;19939;-81
2022/01/05 06:50:14;;;;;;;;;;;;;;;9.84;52.67;100331.34;5038840;28;20018;-81
2022/01/05 06:52:40;;;;;;;;;;;;;;;9.99;52.51;100339.59;5057391;28;19917;-81
2022/01/05 06:55:06;;;;;;;;;;;;;;;10.28;51.84;100341.63;5038788;28;19924;-81
2022/01/05 06:57:31;;;;;;;;;;;;;;;10.10;52.34;100348.88;5038632;28;19917;-82
2022/01/05 06:59:56;;;;;;;;;;;;;;;9.54;53.19;100350.91;5037876;28;19967;-81
2022/01/05 07:02:21;;;;;;;;;;;;;;;10.62;50.95;100356.00;5057231;28;19940;-82
2022/01/05 07:04:46;;;;;;;;;;;;;;;10.00;52.57;100353.03;5038226;28;20267;-81
2022/01/05 07:07:12;;;;;;;;;;;;;;;9.88;53.12;100356.38;5038842;28;19931;-81
2022/01/05 07:09:37;;;;;;;;;;;;;;;10.25;52.28;100362.53;5039179;28;20343;-81
2022/01/05 07:12:02;;;;;;;;;;;;;;;10.14;52.69;100355.00;5056718;28;19916;-82
2022/01/05 07:14:28;;;;;;;;;;;;;;;9.74;53.24;100359.81;5038441;28;19940;-81
2022/01/05 07:16:53;;;;;;;;;;;;;;;10.35;52.61;100365.66;5038633;28;19920;-81
2022/01/05 07:19:20;;;;;;;;;;;;;;;9.74;52.97;100379.59;5038893;28;19917;-81
2022/01/05 07:21:46;;;;;;;;;;;;;;;10.26;52.95;100384.06;5038831;28;20020;-81
2022/01/05 07:24:13;;;;;;;;;;;;;;;10.19;53.28;100381.78;5056949;28;19955;-82
2022/01/05 07:26:39;;;;;;;;;;;;;;;10.55;52.59;100391.59;5039069;28;19921;-81
2022/01/05 07:29:04;;;;;;;;;;;;;;;10.18;52.62;100380.91;5037787;28;20377;-82
2022/01/05 07:31:29;;;;;;;;;;;;;;;10.29;52.91;100386.59;5056788;28;19921;-80
2022/01/05 07:33:54;;;;;;;;;;;;;;;10.00;53.84;100393.56;5039058;28;19923;-81
2022/01/05 07:36:20;;;;;;;;;;;;;;;10.01;53.29;100394.44;5054858;28;19923;-81
2022/01/05 07:38:45;;;;;;;;;;;;;;;10.37;53.01;100398.88;5038308;28;19917;-81
2022/01/05 07:41:10;;;;;;;;;;;;;;;10.15;53.29;100393.72;5035601;28;20050;-83
2022/01/05 07:43:35;;;;;;;;;;;;;;;9.65;54.47;100398.97;5052750;28;19943;-82
2022/01/05 07:46:01;;;;;;;;;;;;;;;10.47;52.97;100408.25;5037502;28;19917;-81
2022/01/05 07:48:26;;;;;;;;;;;;;;;10.23;53.10;100395.03;5055660;28;19917;-82
2022/01/05 07:50:51;;;;;;;;;;;;;;;10.45;54.15;100400.22;5037141;28;19916;-83
2022/01/05 07:53:16;;;;;;;;;;;;;;;10.28;55.04;100403.81;5036821;28;19924;-81
2022/01/05 07:55:42;;;;;;;;;;;;;;;10.21;55.20;100415.88;5054928;28;19917;-82
2022/01/05 07:58:07;;;;;;;;;;;;;;;10.33;55.34;100427.03;5053680;28;19917;-82
2022/01/05 08:00:32;;;;;;;;;;;;;;;10.25;55.68;100433.72;5037330;28;19971;-82
2022/01/05 08:02:57;;;;;;;;;;;;;;;10.31;55.34;100426.22;5035552;28;19952;-82
2022/01/05 08:05:23;;;;;;;;;;;;;;;9.81;57.78;100441.41;5054741;28;19923;-82
2022/01/05 08:07:48;;;;;;;;;;;;;;;9.66;58.55;100443.06;5055240;28;19921;-82
2022/01/05 08:10:13;;;;;;;;;;;;;;;10.31;58.30;100445.13;5058845;28;19921;-82
2022/01/05 08:12:41;;;;;;;;;;;;;;;9.96;59.24;100440.63;5058711;28;20409;-82
2022/01/05 08:15:07;;;;;;;;;;;;;;;10.32;59.13;100452.31;5058025;28;19924;-82
2022/01/05 08:17:32;;;;;;;;;;;;;;;9.58;62.47;100460.50;5041012;28;19917;-82
2022/01/05 08:20:01;;;;;;;;;;;;;;;9.65;63.02;100447.59;5041305;28;20307;-81
2022/01/05 08:22:26;;;;;;;;;;;;;;;8.99;64.00;100456.22;5041337;28;19917;-82
2022/01/05 08:24:51;;;;;;;;;;;;;;;9.43;64.58;100480.19;5040923;28;19963;-84
2022/01/05 08:27:16;;;;;;;;;;;;;;;9.70;63.32;100480.63;5040956;28;19917;-82
2022/01/05 08:29:41;;;;;;;;;;;;;;;10.60;61.46;100476.94;5040872;28;19916;-81
2022/01/05 08:32:07;;;;;;;;;;;;;;;9.74;63.32;100467.88;5040413;28;19970;-81
2022/01/05 08:34:32;;;;;;;;;;;;;;;9.60;63.63;100483.88;5041143;28;19964;-81
2022/01/05 08:36:58;;;;;;;;;;;;;;;10.04;62.89;100476.25;5040707;28;20007;-81
2022/01/05 08:39:23;;;;;;;;;;;;;;;9.55;64.44;100471.47;5040479;28;19938;-85
2022/01/05 08:41:49;;;;;;;;;;;;;;;9.93;63.49;100484.91;5037592;28;19917;-82
2022/01/05 08:44:14;;;;;;;;;;;;;;;9.79;63.99;100484.72;5037277;28;20302;-81
2022/01/05 08:46:39;;;;;;;;;;;;;;;9.75;63.88;100488.50;5052526;28;19920;-80
2022/01/05 08:49:05;;;;;;;;;;;;;;;9.66;64.87;100497.06;5039148;28;19921;-81
2022/01/05 08:51:30;;;;;;;;;;;;;;;10.25;64.06;100500.41;5037483;28;19932;-83
2022/01/05 08:53:55;;;;;;;;;;;;;;;9.61;65.32;100494.59;5036671;28;19924;-81
2022/01/05 08:56:23;;;;;;;;;;;;;;;9.70;64.20;100504.94;5037008;28;19920;-84
2022/01/05 08:58:49;;;;;;;;;;;;;;;10.00;64.45;100507.06;5036899;28;19917;-81
2022/01/05 09:01:14;;;;;;;;;;;;;;;10.45;61.79;100507.53;5036427;28;19931;-81
2022/01/05 09:03:39;;;;;;;;;;;;;;;10.26;63.24;100497.63;5036280;28;19921;-82
2022/01/05 09:06:06;;;;;;;;;;;;;;;10.54;62.56;100511.59;5037474;28;19917;-82
2022/01/05 09:08:32;;;;;;;;;;;;;;;10.78;61.42;100514.81;5038326;28;19960;-81
2022/01/05 09:10:57;;;;;;;;;;;;;;;10.50;61.86;100510.84;5039012;28;19924;-81
2022/01/05 09:13:22;;;;;;;;;;;;;;;9.86;64.43;100517.72;5038373;28;20434;-80
2022/01/05 09:15:48;;;;;;;;;;;;;;;9.76;63.76;100520.84;5037954;28;19932;-80
2022/01/05 09:18:15;;;;;;;;;;;;;;;10.41;62.69;100517.59;5037137;28;19917;-79
2022/01/05 09:20:40;;;;;;;;;;;;;;;10.06;63.33;100517.56;5035602;28;19917;-79
2022/01/05 09:23:05;;;;;;;;;;;;;;;10.01;63.16;100535.84;5038806;28;20455;-80
2022/01/05 09:25:31;;;;;;;;;;;;;;;9.88;63.31;100534.72;5038431;28;20341;-80
2022/01/05 09:27:56;;;;;;;;;;;;;;;9.93;62.89;100538.94;5038283;28;19917;-80
2022/01/05 09:30:22;;;;;;;;;;;;;;;9.83;63.87;100525.94;5059863;28;20024;-80
2022/01/05 09:32:47;;;;;;;;;;;;;;;10.00;62.70;100538.63;5056447;28;19917;-79
2022/01/05 09:35:16;;;;;;;;;;;;;;;10.35;60.87;100534.16;5055208;28;20385;-80
2022/01/05 09:37:50;;;;;;;;;;;;;;;10.06;61.58;100538.31;5056498;28;19986;-80
2022/01/05 09:43:00;;;;;;;;;;;;;;;10.13;62.80;100530.78;5052867;28;19966;-81
2022/01/05 09:45:27;;;;;;;;;;;;;;;10.66;61.04;100534.38;5056662;28;19924;-79
2022/01/05 09:47:52;;;;;;;;;;;;;;;10.54;61.23;100544.03;5055177;28;19923;-79
2022/01/05 09:50:18;;;;;;;;;;;;;;;10.42;61.46;100548.25;5055678;28;20290;-81
2022/01/05 09:52:45;;;;;;;;;;;;;;;10.52;62.23;100572.97;5056288;28;19948;-81
2022/01/05 09:55:11;;;;;;;;;;;;;;;10.11;61.67;100542.56;5055842;28;20006;-81
2022/01/05 09:57:40;;;;;;;;;;;;;;;10.10;62.04;100588.59;5055777;28;19916;-82
2022/01/05 10:00:07;;;;;;;;;;;;;;;10.81;61.38;100593.13;5056341;28;19917;-80
2022/01/05 10:02:32;;;;;;;;;;;;;;;10.60;60.96;100593.28;5054484;28;19992;-81
2022/01/05 10:04:57;;;;;;;;;;;;;;;10.77;60.45;100586.09;5055532;28;19951;-83
2022/01/05 10:07:23;;;;;;;;;;;;;;;10.34;61.07;100596.44;5055480;28;20323;-81
2022/01/05 10:09:49;;;;;;;;;;;;;;;10.41;60.72;100597.88;5056743;28;19917;-81
2022/01/05 10:12:15;;;;;;;;;;;;;;;11.09;58.93;100591.63;5055723;28;19916;-83
2022/01/05 10:14:40;;;;;;;;;;;;;;;11.05;58.61;100599.06;5054827;28;19917;-82
2022/01/05 10:17:07;;;;;;;;;;;;;;;11.31;58.22;100600.34;5054129;28;19986;-82
2022/01/05 10:19:34;;;;;;;;;;;;;;;10.68;60.45;100629.88;5054967;28;20007;-82
2022/01/05 10:21:59;;;;;;;;;;;;;;;11.01;60.04;100612.84;5054792;28;20060;-81
2022/01/05 10:24:39;;;;;;;;;;;;;;;10.53;60.92;100620.72;5054985;28;20463;-81
2022/01/05 10:27:04;;;;;;;;;;;;;;;10.53;61.30;100636.94;5054874;28;19912;-81
2022/01/05 10:29:30;;;;;;;;;;;;;;;10.28;61.97;100630.91;5054877;28;20051;-81
2022/01/05 10:31:55;;;;;;;;;;;;;;;10.58;61.94;100638.47;5056569;28;19921;-82
2022/01/05 10:34:22;;;;;;;;;;;;;;;10.44;62.49;100641.84;5055576;28;19917;-82
2022/01/05 10:36:47;;;;;;;;;;;;;;;10.32;63.20;100642.44;5054185;28;19916;-82
2022/01/05 10:39:13;;;;;;;;;;;;;;;10.21;64.78;100647.53;5056178;28;19916;-82
2022/01/05 10:41:39;;;;;;;;;;;;;;;10.78;63.17;100650.09;5055118;28;19927;-81
2022/01/05 10:44:07;;;;;;;;;;;;;;;9.88;66.01;100659.00;5055192;28;19924;-82
2022/01/05 10:46:35;;;;;;;;;;;;;;;9.78;65.94;100650.44;5054748;28;19921;-80
2022/01/05 10:49:03;;;;;;;;;;;;;;;9.80;65.30;100650.38;5055870;28;19924;-83
2022/01/05 10:51:29;;;;;;;;;;;;;;;10.65;64.06;100660.66;5055566;28;19916;-83
2022/01/05 10:54:11;;;;;;;;;;;;;;;10.80;63.92;100661.72;5053643;28;20007;-80
2022/01/05 10:56:36;;;;;;;;;;;;;;;10.97;63.73;100664.41;5053855;28;19916;-81
2022/01/05 10:59:02;;;;;;;;;;;;;;;10.01;65.13;100668.28;5053692;28;19970;-81
2022/01/05 11:01:28;;;;;;;;;;;;;;;10.92;63.45;100671.03;5064911;28;19925;-80
2022/01/05 11:03:53;;;;;;;;;;;;;;;10.58;64.31;100670.94;5055769;28;20007;-81
2022/01/05 11:06:18;;;;;;;;;;;;;;;10.16;65.22;100680.19;5054503;28;19986;-83
2022/01/05 11:08:52;;;;;;;;;;;;;;;10.15;66.51;100678.41;5054756;28;20015;-82
2022/01/05 11:11:37;;;;;;;;;;;;;;;10.62;65.49;100674.34;5054251;28;19921;-82
2022/01/05 11:14:06;;;;;;;;;;;;;;;10.80;63.96;100675.25;5054238;28;20294;-81
2022/01/05 11:16:31;;;;;;;;;;;;;;;10.41;64.52;100668.19;5055958;28;19916;-82
2022/01/05 11:19:15;;;;;;;;;;;;;;;10.32;65.28;100663.19;5055647;28;19923;-81
2022/01/05 11:21:53;;;;;;;;;;;;;;;10.55;65.16;100671.09;5055788;28;19924;-85
2022/01/05 11:24:19;;;;;;;;;;;;;;;10.88;62.98;100673.00;5057327;28;19917;-83
2022/01/05 11:26:44;;;;;;;;;;;;;;;10.58;63.90;100670.03;5055928;28;19932;-82
2022/01/05 11:29:10;;;;;;;;;;;;;;;11.00;63.40;100676.91;5055655;28;20476;-83
2022/01/05 11:31:39;;;;;;;;;;;;;;;12.03;60.29;100679.50;5057216;28;19925;-81
2022/01/05 11:34:04;;;;;;;;;;;;;;;10.44;64.53;100695.94;5055731;28;19975;-80
2022/01/05 11:36:29;;;;;;;;;;;;;;;10.30;65.76;100722.75;5055836;28;19917;-82
2022/01/05 11:38:54;;;;;;;;;;;;;;;9.85;68.80;100705.09;5055929;28;19917;-81
2022/01/05 11:41:21;;;;;;;;;;;;;;;10.25;68.04;100712.19;5056202;28;19928;-82
2022/01/05 11:43:47;;;;;;;;;;;;;;;10.41;66.64;100719.56;5059098;28;19917;-81
2022/01/05 11:46:16;;;;;;;;;;;;;;;9.98;67.20;100717.06;5058496;28;20015;-83
2022/01/05 11:48:57;;;;;;;;;;;;;;;10.79;66.22;100711.34;5059489;28;20050;-85
2022/01/05 11:51:30;;;;;;;;;;;;;;;9.90;67.98;100705.75;5059302;28;19917;-82
2022/01/05 11:54:12;;;;;;;;;;;;;;;10.34;67.26;100718.09;5060434;28;19917;-84
2022/01/05 11:56:45;;;;;;;;;;;;;;;10.95;65.41;100723.16;5059537;28;20557;-85
2022/01/05 11:59:21;;;;;;;;;;;;;;;11.05;65.10;100723.59;5060501;28;19936;-83
2022/01/05 12:02:05;;;;;;;;;;;;;;;11.17;64.56;100711.22;5059579;28;19932;-83
2022/01/05 12:04:31;;;;;;;;;;;;;;;11.67;62.49;100726.63;5059543;28;20423;-84
2022/01/05 12:07:00;;;;;;;;;;;;;;;10.97;63.77;100729.34;5059051;28;20003;-83
2022/01/05 12:09:27;;;;;;;;;;;;;;;10.62;64.98;100723.91;5058513;28;19964;-82
2022/01/05 12:11:53;;;;;;;;;;;;;;;10.62;64.39;100742.84;5058532;28;19924;-82
2022/01/05 12:14:21;;;;;;;;;;;;;;;10.36;65.60;100763.06;5058441;28;19921;-81
2022/01/05 12:16:55;;;;;;;;;;;;;;;10.27;66.88;100752.66;5057537;28;19987;-82
2022/01/05 12:19:22;;;;;;;;;;;;;;;10.91;65.85;100754.03;5056910;28;19971;-82
2022/01/05 12:21:48;;;;;;;;;;;;;;;10.88;66.35;100759.59;5056400;28;19920;-80
2022/01/05 12:24:14;;;;;;;;;;;;;;;11.16;65.99;100763.63;5036767;28;19922;-81
2022/01/05 12:26:39;;;;;;;;;;;;;;;10.66;65.68;100762.53;5056142;28;19947;-85
2022/01/05 12:29:04;;;;;;;;;;;;;;;11.50;64.87;100751.03;5057741;28;19917;-83
2022/01/05 12:31:49;;;;;;;;;;;;;;;11.37;63.00;100748.09;5056559;28;19928;-84
2022/01/05 12:34:34;;;;;;;;;;;;;;;11.56;62.50;100760.66;5046203;28;19940;-82
2022/01/05 12:36:59;;;;;;;;;;;;;;;10.97;64.95;100758.28;5049134;28;19931;-83
2022/01/05 12:39:44;;;;;;;;;;;;;;;10.76;64.41;100769.22;5067497;28;20331;-83